createdAt,value
2022-11-27T00:00:23.838Z,51.216068
2022-11-27T00:01:23.859Z,51.215984
2022-11-27T00:02:23.864Z,51.215836
2022-11-27T00:03:24.040Z,51.215801
2022-11-27T00:04:23.816Z,51.215855
2022-11-27T00:05:23.818Z,51.215893
2022-11-27T00:06:23.809Z,51.215969
2022-11-27T00:07:23.861Z,51.216019
2022-11-27T00:08:23.817Z,51.216095
2022-11-27T00:09:23.782Z,51.216030
2022-11-27T00:10:23.774Z,51.215878
2022-11-27T00:11:23.769Z,51.215809
2022-11-27T00:12:23.765Z,51.215816
2022-11-27T00:13:23.783Z,51.216267
2022-11-27T00:14:23.754Z,51.216099
2022-11-27T00:15:23.738Z,51.215977
2022-11-27T00:16:23.774Z,51.215984
2022-11-27T00:17:23.734Z,51.216045
2022-11-27T00:18:23.727Z,51.216011
2022-11-27T00:19:23.738Z,51.216103
2022-11-27T00:20:28.515Z,51.216091
2022-11-27T00:21:25.697Z,51.215992
2022-11-27T00:22:23.686Z,51.216084
2022-11-27T00:23:23.690Z,51.216164
2022-11-27T00:24:23.698Z,51.216103
2022-11-27T00:25:23.678Z,51.215988
2022-11-27T00:26:23.670Z,51.215878
2022-11-27T00:27:23.658Z,51.215763
2022-11-27T00:28:23.663Z,51.215736
2022-11-27T00:29:23.659Z,51.216080
2022-11-27T00:30:23.632Z,51.215981
2022-11-27T00:31:24.686Z,51.215820
2022-11-27T00:32:23.639Z,51.215973
2022-11-27T00:33:23.637Z,51.216148
2022-11-27T00:34:23.626Z,51.215950
2022-11-27T00:35:23.615Z,51.216133
2022-11-27T00:36:23.602Z,51.216324
2022-11-27T00:37:23.593Z,51.216286
2022-11-27T00:38:23.585Z,51.216160
2022-11-27T00:39:23.606Z,51.216000
2022-11-27T00:40:23.606Z,51.215836
2022-11-27T00:41:23.578Z,51.215832
2022-11-27T00:42:23.562Z,51.215775
2022-11-27T00:43:23.552Z,51.215855
2022-11-27T00:44:23.553Z,51.215874
2022-11-27T00:45:23.558Z,51.215862
2022-11-27T00:46:28.095Z,51.215996
2022-11-27T00:47:25.534Z,51.215958
2022-11-27T00:48:23.526Z,51.215965
2022-11-27T00:49:23.511Z,51.215981
2022-11-27T00:50:23.518Z,51.215973
2022-11-27T00:51:23.513Z,51.216007
2022-11-27T00:52:23.496Z,51.215931
2022-11-27T00:53:23.494Z,51.216045
2022-11-27T00:54:23.504Z,51.216312
2022-11-27T00:55:23.479Z,51.216278
2022-11-27T00:56:23.474Z,51.216045
2022-11-27T00:57:23.466Z,51.216030
2022-11-27T00:58:23.462Z,51.216091
2022-11-27T00:59:23.480Z,51.216068
2022-11-27T01:00:23.452Z,51.215969
2022-11-27T01:01:23.544Z,51.215893
2022-11-27T01:02:23.465Z,51.215801
2022-11-27T01:03:23.425Z,51.215752
2022-11-27T01:04:23.427Z,51.215988
2022-11-27T01:05:23.446Z,51.216160
2022-11-27T01:06:23.414Z,51.216087
2022-11-27T01:07:23.473Z,51.216145
2022-11-27T01:08:23.390Z,51.216110
2022-11-27T01:09:23.391Z,51.216194
2022-11-27T01:10:23.402Z,51.216133
2022-11-27T01:11:23.434Z,51.216030
2022-11-27T01:12:23.373Z,51.216053
2022-11-27T01:13:23.358Z,51.216042
2022-11-27T01:14:23.349Z,51.216057
2022-11-27T01:15:23.356Z,51.216137
2022-11-27T01:16:23.420Z,51.216019
2022-11-27T01:17:23.321Z,51.215961
2022-11-27T01:18:23.322Z,51.215935
2022-11-27T01:19:23.322Z,51.215900
2022-11-27T01:20:23.307Z,51.215843
2022-11-27T01:21:23.327Z,51.215771
2022-11-27T01:22:23.304Z,51.215809
2022-11-27T01:23:23.290Z,51.216011
2022-11-27T01:24:23.290Z,51.216091
2022-11-27T01:25:26.908Z,51.216022
2022-11-27T01:26:23.273Z,51.215992
2022-11-27T01:27:23.278Z,51.216030
2022-11-27T01:28:23.262Z,51.215992
2022-11-27T01:29:23.251Z,51.216022
2022-11-27T01:30:23.250Z,51.216045
2022-11-27T01:31:23.298Z,51.216030
2022-11-27T01:32:23.238Z,51.216122
2022-11-27T01:33:23.230Z,51.216103
2022-11-27T01:34:23.222Z,51.216084
2022-11-27T01:35:23.214Z,51.216133
2022-11-27T01:36:23.207Z,51.216095
2022-11-27T01:37:23.213Z,51.216038
2022-11-27T01:38:23.203Z,51.215954
2022-11-27T01:39:23.194Z,51.216087
2022-11-27T01:40:23.182Z,51.216045
2022-11-27T01:41:23.164Z,51.216049
2022-11-27T01:42:23.166Z,51.215923
2022-11-27T01:43:23.181Z,51.216019
2022-11-27T01:44:23.146Z,51.215919
2022-11-27T01:45:23.149Z,51.215954
2022-11-27T01:46:23.221Z,51.216003
2022-11-27T01:47:23.131Z,51.216011
2022-11-27T01:48:23.139Z,51.216080
2022-11-27T01:49:23.132Z,51.216038
2022-11-27T01:50:23.108Z,51.216011
2022-11-27T01:51:23.105Z,51.216022
2022-11-27T01:52:23.099Z,51.216076
2022-11-27T01:53:23.087Z,51.216007
2022-11-27T01:54:23.109Z,51.215958
2022-11-27T01:55:23.081Z,51.216026
2022-11-27T01:56:23.075Z,51.215950
2022-11-27T01:57:23.063Z,51.216045
2022-11-27T01:58:23.061Z,51.216171
2022-11-27T01:59:23.074Z,51.216106
2022-11-27T02:00:23.043Z,51.216022
2022-11-27T02:01:23.090Z,51.216171
2022-11-27T02:02:23.136Z,51.216080
2022-11-27T02:03:23.130Z,51.216106
2022-11-27T02:04:23.035Z,51.216156
2022-11-27T02:05:23.019Z,51.216099
2022-11-27T02:06:22.998Z,51.216206
2022-11-27T02:07:23.029Z,51.216179
2022-11-27T02:08:22.986Z,51.216049
2022-11-27T02:09:22.983Z,51.216045
2022-11-27T02:10:23.002Z,51.216133
2022-11-27T02:11:22.967Z,51.216118
2022-11-27T02:12:22.958Z,51.215946
2022-11-27T02:13:22.954Z,51.216141
2022-11-27T02:14:22.941Z,51.216145
2022-11-27T02:15:22.946Z,51.216129
2022-11-27T02:16:23.047Z,51.216087
2022-11-27T02:17:22.930Z,51.216122
2022-11-27T02:18:22.911Z,51.216106
2022-11-27T02:19:22.907Z,51.216076
2022-11-27T02:20:22.898Z,51.216110
2022-11-27T02:21:23.054Z,51.216068
2022-11-27T02:22:22.882Z,51.216095
2022-11-27T02:23:22.886Z,51.215992
2022-11-27T02:24:22.885Z,51.216122
2022-11-27T02:25:28.139Z,51.216183
2022-11-27T02:26:23.896Z,51.216133
2022-11-27T02:27:22.854Z,51.216087
2022-11-27T02:28:22.946Z,51.216072
2022-11-27T02:29:22.842Z,51.216030
2022-11-27T02:30:22.875Z,51.216221
2022-11-27T02:31:22.859Z,51.216110
2022-11-27T02:32:22.828Z,51.216106
2022-11-27T02:33:22.837Z,51.215984
2022-11-27T02:34:22.822Z,51.216038
2022-11-27T02:35:22.814Z,51.215984
2022-11-27T02:36:22.802Z,51.215950
2022-11-27T02:37:22.793Z,51.216000
2022-11-27T02:38:22.799Z,51.216019
2022-11-27T02:39:22.782Z,51.216087
2022-11-27T02:40:22.774Z,51.216072
2022-11-27T02:41:22.767Z,51.216076
2022-11-27T02:42:22.861Z,51.216167
2022-11-27T02:43:22.761Z,51.216171
2022-11-27T02:44:22.750Z,51.215961
2022-11-27T02:45:22.732Z,51.216072
2022-11-27T02:46:22.808Z,51.216087
2022-11-27T02:47:22.743Z,51.216068
2022-11-27T02:48:22.733Z,51.216057
2022-11-27T02:49:22.707Z,51.216045
2022-11-27T02:50:22.711Z,51.216068
2022-11-27T02:51:22.705Z,51.216175
2022-11-27T02:52:22.703Z,51.216148
2022-11-27T02:53:22.686Z,51.216076
2022-11-27T02:54:22.682Z,51.216110
2022-11-27T02:55:22.678Z,51.216095
2022-11-27T02:56:22.666Z,51.216087
2022-11-27T02:57:22.668Z,51.216179
2022-11-27T02:58:22.742Z,51.216087
2022-11-27T02:59:22.626Z,51.216049
2022-11-27T03:00:23.650Z,51.216068
2022-11-27T03:01:22.702Z,51.216068
2022-11-27T03:02:22.695Z,51.216042
2022-11-27T03:03:22.608Z,51.216259
2022-11-27T03:04:22.620Z,51.216000
2022-11-27T03:05:22.604Z,51.216026
2022-11-27T03:06:22.600Z,51.216118
2022-11-27T03:07:22.657Z,51.216145
2022-11-27T03:08:22.589Z,51.216366
2022-11-27T03:09:22.584Z,51.216125
2022-11-27T03:10:22.581Z,51.216110
2022-11-27T03:11:22.563Z,51.216125
2022-11-27T03:12:22.620Z,51.216080
2022-11-27T03:13:22.561Z,51.216045
2022-11-27T03:14:22.634Z,51.216015
2022-11-27T03:15:22.552Z,51.216007
2022-11-27T03:16:22.555Z,51.216099
2022-11-27T03:17:22.552Z,51.216038
2022-11-27T03:18:22.535Z,51.216133
2022-11-27T03:19:22.524Z,51.216019
2022-11-27T03:20:22.513Z,51.216194
2022-11-27T03:21:22.508Z,51.216133
2022-11-27T03:22:22.530Z,51.216106
2022-11-27T03:23:22.497Z,51.216022
2022-11-27T03:24:22.485Z,51.216202
2022-11-27T03:25:22.473Z,51.216030
2022-11-27T03:26:22.472Z,51.216217
2022-11-27T03:27:22.504Z,51.216049
2022-11-27T03:28:22.462Z,51.216110
2022-11-27T03:29:22.449Z,51.216084
2022-11-27T03:30:22.527Z,51.216000
2022-11-27T03:31:23.491Z,51.215946
2022-11-27T03:32:22.477Z,51.215927
2022-11-27T03:33:22.443Z,51.215866
2022-11-27T03:34:22.426Z,51.215954
2022-11-27T03:35:22.422Z,51.216061
2022-11-27T03:36:22.405Z,51.216011
2022-11-27T03:37:22.402Z,51.216049
2022-11-27T03:38:22.410Z,51.216103
2022-11-27T03:39:22.417Z,51.216110
2022-11-27T03:40:22.386Z,51.216061
2022-11-27T03:41:22.375Z,51.216125
2022-11-27T03:42:22.365Z,51.215984
2022-11-27T03:43:22.366Z,51.215923
2022-11-27T03:44:22.377Z,51.216072
2022-11-27T03:45:22.356Z,51.216034
2022-11-27T03:46:22.545Z,51.215931
2022-11-27T03:47:22.369Z,51.216076
2022-11-27T03:48:22.321Z,51.216099
2022-11-27T03:49:22.321Z,51.215973
2022-11-27T03:50:22.324Z,51.216103
2022-11-27T03:51:22.312Z,51.216103
2022-11-27T03:52:22.301Z,51.216110
2022-11-27T03:53:22.297Z,51.216171
2022-11-27T03:54:22.286Z,51.216099
2022-11-27T03:55:22.313Z,51.216110
2022-11-27T03:56:22.278Z,51.216160
2022-11-27T03:57:22.261Z,51.216152
2022-11-27T03:58:22.257Z,51.216064
2022-11-27T03:59:22.262Z,51.215988
2022-11-27T04:00:22.270Z,51.216030
2022-11-27T04:01:22.269Z,51.215961
2022-11-27T04:02:22.377Z,51.216267
2022-11-27T04:03:22.222Z,51.216194
2022-11-27T04:04:22.264Z,51.216156
2022-11-27T04:05:22.215Z,51.216141
2022-11-27T04:06:22.222Z,51.216080
2022-11-27T04:07:22.299Z,51.215958
2022-11-27T04:08:22.217Z,51.215977
2022-11-27T04:09:22.188Z,51.215954
2022-11-27T04:10:22.174Z,51.216080
2022-11-27T04:11:22.174Z,51.216232
2022-11-27T04:12:22.161Z,51.216202
2022-11-27T04:13:22.169Z,51.216145
2022-11-27T04:14:22.150Z,51.216160
2022-11-27T04:15:22.154Z,51.216114
2022-11-27T04:16:22.155Z,51.216114
2022-11-27T04:17:22.131Z,51.215881
2022-11-27T04:18:28.092Z,51.215961
2022-11-27T04:19:23.207Z,51.216026
2022-11-27T04:20:22.117Z,51.215942
2022-11-27T04:21:22.097Z,51.216068
2022-11-27T04:22:22.094Z,51.215897
2022-11-27T04:23:22.081Z,51.215927
2022-11-27T04:24:22.074Z,51.216045
2022-11-27T04:25:22.085Z,51.216198
2022-11-27T04:26:22.080Z,51.216129
2022-11-27T04:27:22.061Z,51.216148
2022-11-27T04:28:22.050Z,51.216198
2022-11-27T04:29:22.046Z,51.216225
2022-11-27T04:30:22.037Z,51.216122
2022-11-27T04:31:22.119Z,51.216091
2022-11-27T04:32:22.025Z,51.216076
2022-11-27T04:33:22.030Z,51.216038
2022-11-27T04:34:22.011Z,51.216129
2022-11-27T04:35:22.100Z,51.216072
2022-11-27T04:36:22.014Z,51.216064
2022-11-27T04:37:21.998Z,51.216160
2022-11-27T04:38:21.985Z,51.216003
2022-11-27T04:39:21.988Z,51.216030
2022-11-27T04:40:21.971Z,51.216042
2022-11-27T04:41:21.986Z,51.216053
2022-11-27T04:42:21.958Z,51.216072
2022-11-27T04:43:21.956Z,51.216045
2022-11-27T04:44:21.933Z,51.215919
2022-11-27T04:45:21.937Z,51.216049
2022-11-27T04:46:22.023Z,51.215916
2022-11-27T04:47:21.940Z,51.216015
2022-11-27T04:48:21.940Z,51.216099
2022-11-27T04:49:21.932Z,51.216248
2022-11-27T04:50:21.908Z,51.216190
2022-11-27T04:51:21.997Z,51.216125
2022-11-27T04:52:21.933Z,51.216106
2022-11-27T04:53:21.888Z,51.216091
2022-11-27T04:54:21.890Z,51.216068
2022-11-27T04:55:21.876Z,51.216106
2022-11-27T04:56:21.880Z,51.216286
2022-11-27T04:57:21.878Z,51.216278
2022-11-27T04:58:21.905Z,51.216305
2022-11-27T04:59:21.850Z,51.216206
2022-11-27T05:00:21.833Z,51.216053
2022-11-27T05:01:21.878Z,51.216034
2022-11-27T05:02:21.912Z,51.216110
2022-11-27T05:03:21.926Z,51.216057
2022-11-27T05:04:21.807Z,51.216084
2022-11-27T05:05:21.817Z,51.216068
2022-11-27T05:06:21.832Z,51.216160
2022-11-27T05:07:21.969Z,51.216187
2022-11-27T05:08:21.784Z,51.216198
2022-11-27T05:09:21.804Z,51.216213
2022-11-27T05:10:21.779Z,51.216160
2022-11-27T05:11:21.777Z,51.216278
2022-11-27T05:12:21.790Z,51.216175
2022-11-27T05:13:21.753Z,51.216194
2022-11-27T05:14:21.765Z,51.216221
2022-11-27T05:15:21.745Z,51.216175
2022-11-27T05:16:21.840Z,51.216236
2022-11-27T05:17:21.728Z,51.216133
2022-11-27T05:18:21.728Z,51.216118
2022-11-27T05:19:21.717Z,51.216053
2022-11-27T05:20:21.709Z,51.216064
2022-11-27T05:21:21.734Z,51.215908
2022-11-27T05:22:21.690Z,51.215927
2022-11-27T05:23:28.671Z,51.216084
2022-11-27T05:24:22.778Z,51.216034
2022-11-27T05:25:21.684Z,51.216019
2022-11-27T05:26:21.673Z,51.216057
2022-11-27T05:27:21.684Z,51.216171
2022-11-27T05:28:26.418Z,51.216129
2022-11-27T05:29:22.676Z,51.216106
2022-11-27T05:30:21.646Z,51.216187
2022-11-27T05:31:21.667Z,51.216141
2022-11-27T05:32:21.636Z,51.216068
2022-11-27T05:33:21.631Z,51.216042
2022-11-27T05:34:21.633Z,51.215668
2022-11-27T05:35:21.621Z,51.215939
2022-11-27T05:36:21.605Z,51.216076
2022-11-27T05:37:21.590Z,51.215923
2022-11-27T05:38:21.624Z,51.215969
2022-11-27T05:39:21.588Z,51.215961
2022-11-27T05:40:21.665Z,51.215984
2022-11-27T05:41:21.581Z,51.215927
2022-11-27T05:42:21.576Z,51.216034
2022-11-27T05:43:21.584Z,51.216122
2022-11-27T05:44:21.557Z,51.216106
2022-11-27T05:45:21.555Z,51.216118
2022-11-27T05:46:21.613Z,51.216137
2022-11-27T05:47:21.541Z,51.216015
2022-11-27T05:48:21.537Z,51.216045
2022-11-27T05:49:21.521Z,51.215477
2022-11-27T05:50:21.520Z,51.215591
2022-11-27T05:51:21.512Z,51.215839
2022-11-27T05:52:21.509Z,51.216045
2022-11-27T05:53:21.513Z,51.216064
2022-11-27T05:54:21.509Z,51.216049
2022-11-27T05:55:22.486Z,51.216091
2022-11-27T05:56:21.574Z,51.215984
2022-11-27T05:57:21.474Z,51.216072
2022-11-27T05:58:21.448Z,51.216095
2022-11-27T05:59:21.477Z,51.216286
2022-11-27T06:00:21.447Z,51.216084
2022-11-27T06:01:21.435Z,51.215908
2022-11-27T06:02:25.117Z,51.215847
2022-11-27T06:03:23.494Z,51.215816
2022-11-27T06:04:21.420Z,51.215939
2022-11-27T06:05:21.425Z,51.216057
2022-11-27T06:06:21.425Z,51.216076
2022-11-27T06:07:21.451Z,51.215790
2022-11-27T06:08:22.401Z,51.215870
2022-11-27T06:09:21.393Z,51.215927
2022-11-27T06:10:21.372Z,51.216183
2022-11-27T06:11:21.392Z,51.215969
2022-11-27T06:12:21.461Z,51.215813
2022-11-27T06:13:21.368Z,51.215492
2022-11-27T06:14:21.348Z,51.215759
2022-11-27T06:15:21.354Z,51.215816
2022-11-27T06:16:21.393Z,51.216068
2022-11-27T06:17:21.340Z,51.215912
2022-11-27T06:18:21.328Z,51.215748
2022-11-27T06:19:21.323Z,51.215969
2022-11-27T06:20:21.322Z,51.216133
2022-11-27T06:21:21.311Z,51.216141
2022-11-27T06:22:21.313Z,51.216072
2022-11-27T06:23:21.293Z,51.216026
2022-11-27T06:24:21.296Z,51.216030
2022-11-27T06:25:21.280Z,51.216103
2022-11-27T06:26:21.292Z,51.216076
2022-11-27T06:27:21.272Z,51.216099
2022-11-27T06:28:21.357Z,51.216072
2022-11-27T06:29:21.254Z,51.216061
2022-11-27T06:30:21.247Z,51.215988
2022-11-27T06:31:21.309Z,51.215900
2022-11-27T06:32:21.237Z,51.215885
2022-11-27T06:33:21.236Z,51.216049
2022-11-27T06:34:21.220Z,51.216301
2022-11-27T06:35:21.221Z,51.216537
2022-11-27T06:36:21.203Z,51.216274
2022-11-27T06:37:21.224Z,51.215973
2022-11-27T06:38:21.187Z,51.215912
2022-11-27T06:39:21.184Z,51.216129
2022-11-27T06:40:21.185Z,51.216427
2022-11-27T06:41:21.188Z,51.216511
2022-11-27T06:42:21.180Z,51.216354
2022-11-27T06:43:21.177Z,51.216354
2022-11-27T06:44:21.367Z,51.216354
2022-11-27T06:45:21.296Z,51.216084
2022-11-27T06:46:21.247Z,51.216019
2022-11-27T06:47:21.136Z,51.216038
2022-11-27T06:48:21.148Z,51.215824
2022-11-27T06:49:21.118Z,51.216038
2022-11-27T06:50:21.104Z,51.216434
2022-11-27T06:51:21.106Z,51.216465
2022-11-27T06:52:21.104Z,51.216152
2022-11-27T06:53:21.083Z,51.216221
2022-11-27T06:54:21.111Z,51.215885
2022-11-27T06:55:21.087Z,51.215763
2022-11-27T06:56:21.062Z,51.216389
2022-11-27T06:57:21.054Z,51.216385
2022-11-27T06:58:21.059Z,51.216145
2022-11-27T06:59:21.207Z,51.215874
2022-11-27T07:00:22.137Z,51.215755
2022-11-27T07:01:21.094Z,51.215942
2022-11-27T07:02:21.130Z,51.215950
2022-11-27T07:03:21.026Z,51.216194
2022-11-27T07:04:21.026Z,51.216042
2022-11-27T07:05:21.123Z,51.216064
2022-11-27T07:06:21.016Z,51.216213
2022-11-27T07:07:21.032Z,51.216022
2022-11-27T07:08:20.994Z,51.216114
2022-11-27T07:09:20.979Z,51.216125
2022-11-27T07:10:21.010Z,51.216030
2022-11-27T07:11:20.983Z,51.215839
2022-11-27T07:12:20.961Z,51.216301
2022-11-27T07:13:20.968Z,51.216171
2022-11-27T07:14:20.963Z,51.216267
2022-11-27T07:15:20.963Z,51.216328
2022-11-27T07:16:21.071Z,51.216213
2022-11-27T07:17:20.939Z,51.216179
2022-11-27T07:18:20.931Z,51.216007
2022-11-27T07:19:21.502Z,51.216103
2022-11-27T07:20:20.923Z,51.216118
2022-11-27T07:21:20.917Z,51.216110
2022-11-27T07:22:20.907Z,51.216141
2022-11-27T07:23:20.906Z,51.216019
2022-11-27T07:24:20.885Z,51.216068
2022-11-27T07:25:20.887Z,51.216114
2022-11-27T07:26:20.899Z,51.216080
2022-11-27T07:27:20.870Z,51.216068
2022-11-27T07:28:20.859Z,51.215935
2022-11-27T07:29:20.850Z,51.216152
2022-11-27T07:30:20.854Z,51.216152
2022-11-27T07:31:20.910Z,51.216141
2022-11-27T07:32:20.950Z,51.216167
2022-11-27T07:33:20.830Z,51.216122
2022-11-27T07:34:21.947Z,51.216187
2022-11-27T07:35:21.814Z,51.216106
2022-11-27T07:36:20.819Z,51.216133
2022-11-27T07:37:20.819Z,51.216202
2022-11-27T07:38:20.807Z,51.216167
2022-11-27T07:39:39.427Z,51.216141
2022-11-27T07:40:22.781Z,51.216068
2022-11-27T07:41:20.782Z,51.216152
2022-11-27T07:42:37.390Z,51.216236
2022-11-27T07:43:22.790Z,51.216160
2022-11-27T07:44:20.755Z,51.216190
2022-11-27T07:45:20.751Z,51.216290
2022-11-27T07:46:20.821Z,51.216175
2022-11-27T07:47:20.736Z,51.216145
2022-11-27T07:48:20.834Z,51.216099
2022-11-27T07:49:20.803Z,51.216202
2022-11-27T07:50:20.714Z,51.216068
2022-11-27T07:51:20.714Z,51.216129
2022-11-27T07:52:20.691Z,51.216103
2022-11-27T07:53:20.696Z,51.216095
2022-11-27T07:54:20.704Z,51.216095
2022-11-27T07:55:20.695Z,51.216053
2022-11-27T07:56:20.675Z,51.216072
2022-11-27T07:57:20.662Z,51.216095
2022-11-27T07:58:20.674Z,51.216110
2022-11-27T07:59:20.658Z,51.216106
2022-11-27T08:00:20.667Z,51.216103
2022-11-27T08:01:20.671Z,51.216228
2022-11-27T08:02:20.631Z,51.216213
2022-11-27T08:03:20.647Z,51.216293
2022-11-27T08:04:20.771Z,51.216114
2022-11-27T08:05:20.693Z,51.216061
2022-11-27T08:06:20.604Z,51.216084
2022-11-27T08:07:20.642Z,51.215904
2022-11-27T08:08:20.586Z,51.216217
2022-11-27T08:09:20.599Z,51.216175
2022-11-27T08:10:20.570Z,51.216167
2022-11-27T08:11:20.579Z,51.216034
2022-11-27T08:12:20.558Z,51.215904
2022-11-27T08:13:20.550Z,51.215797
2022-11-27T08:14:20.554Z,51.215996
2022-11-27T08:15:20.545Z,51.216122
2022-11-27T08:16:20.579Z,51.216068
2022-11-27T08:17:20.518Z,51.216187
2022-11-27T08:18:20.516Z,51.215889
2022-11-27T08:19:20.513Z,51.215733
2022-11-27T08:20:20.587Z,51.215939
2022-11-27T08:21:20.491Z,51.215870
2022-11-27T08:22:21.510Z,51.215847
2022-11-27T08:23:20.474Z,51.216003
2022-11-27T08:24:20.475Z,51.215771
2022-11-27T08:25:20.467Z,51.215801
2022-11-27T08:26:20.455Z,51.215836
2022-11-27T08:27:20.466Z,51.215202
2022-11-27T08:28:20.466Z,51.215107
2022-11-27T08:29:20.438Z,51.216026
2022-11-27T08:30:20.428Z,51.216431
2022-11-27T08:31:20.469Z,51.216370
2022-11-27T08:32:20.435Z,51.215836
2022-11-27T08:33:20.442Z,51.216053
2022-11-27T08:34:20.409Z,51.215393
2022-11-27T08:35:20.393Z,51.215370
2022-11-27T08:36:20.492Z,51.215794
2022-11-27T08:37:20.386Z,51.215820
2022-11-27T08:38:21.560Z,51.216019
2022-11-27T08:39:20.374Z,51.215969
2022-11-27T08:40:20.366Z,51.215988
2022-11-27T08:41:20.357Z,51.215988
2022-11-27T08:42:20.350Z,51.215851
2022-11-27T08:43:20.346Z,51.215698
2022-11-27T08:44:20.352Z,51.215683
2022-11-27T08:45:20.442Z,51.215607
2022-11-27T08:46:20.391Z,51.215652
2022-11-27T08:47:20.322Z,51.215775
2022-11-27T08:48:20.315Z,51.215984
2022-11-27T08:49:20.334Z,51.215900
2022-11-27T08:50:20.286Z,51.215961
2022-11-27T08:51:20.296Z,51.216339
2022-11-27T08:52:20.378Z,51.216633
2022-11-27T08:53:20.291Z,51.216869
2022-11-27T08:54:20.275Z,51.216763
2022-11-27T08:55:20.294Z,51.216484
2022-11-27T08:56:20.262Z,51.216297
2022-11-27T08:57:20.254Z,51.216343
2022-11-27T08:58:20.242Z,51.216290
2022-11-27T08:59:20.237Z,51.216324
2022-11-27T09:00:24.924Z,51.216141
2022-11-27T09:01:22.328Z,51.216301
2022-11-27T09:02:20.215Z,51.216301
2022-11-27T09:03:20.204Z,51.216183
2022-11-27T09:04:20.320Z,51.216137
2022-11-27T09:05:20.189Z,51.216324
2022-11-27T09:06:20.210Z,51.216202
2022-11-27T09:07:20.215Z,51.216167
2022-11-27T09:08:20.268Z,51.216084
2022-11-27T09:09:20.171Z,51.216194
2022-11-27T09:10:20.154Z,51.216080
2022-11-27T09:11:20.188Z,51.215904
2022-11-27T09:12:20.137Z,51.215897
2022-11-27T09:13:20.138Z,51.215939
2022-11-27T09:14:20.126Z,51.215961
2022-11-27T09:15:20.118Z,51.215721
2022-11-27T09:16:20.150Z,51.215923
2022-11-27T09:17:20.136Z,51.215794
2022-11-27T09:18:20.108Z,51.215439
2022-11-27T09:19:20.106Z,51.215160
2022-11-27T09:20:20.105Z,51.215214
2022-11-27T09:21:20.086Z,51.215527
2022-11-27T09:22:20.090Z,51.215733
2022-11-27T09:23:20.071Z,51.215824
2022-11-27T09:24:20.167Z,51.215881
2022-11-27T09:25:20.059Z,51.216000
2022-11-27T09:26:20.074Z,51.216137
2022-11-27T09:27:20.063Z,51.216114
2022-11-27T09:28:20.036Z,51.216080
2022-11-27T09:29:20.022Z,51.216080
2022-11-27T09:30:20.025Z,51.216167
2022-11-27T09:31:20.014Z,51.216129
2022-11-27T09:32:20.092Z,51.216042
2022-11-27T09:33:20.006Z,51.216015
2022-11-27T09:34:19.989Z,51.216209
2022-11-27T09:35:20.083Z,51.216305
2022-11-27T09:36:19.977Z,51.216206
2022-11-27T09:37:19.978Z,51.216171
2022-11-27T09:38:19.998Z,51.216389
2022-11-27T09:39:19.966Z,51.216225
2022-11-27T09:40:20.044Z,51.215981
2022-11-27T09:41:19.960Z,51.215992
2022-11-27T09:42:19.931Z,51.216122
2022-11-27T09:43:19.954Z,51.216068
2022-11-27T09:44:19.926Z,51.216099
2022-11-27T09:45:19.922Z,51.216053
2022-11-27T09:46:19.994Z,51.216160
2022-11-27T09:47:19.901Z,51.216187
2022-11-27T09:48:19.898Z,51.216095
2022-11-27T09:49:19.910Z,51.216156
2022-11-27T09:50:19.887Z,51.216209
2022-11-27T09:51:19.885Z,51.216221
2022-11-27T09:52:19.873Z,51.216167
2022-11-27T09:53:19.866Z,51.216148
2022-11-27T09:54:19.842Z,51.216015
2022-11-27T09:55:19.853Z,51.215694
2022-11-27T09:56:19.936Z,51.215694
2022-11-27T09:57:19.830Z,51.215759
2022-11-27T09:58:19.824Z,51.215755
2022-11-27T09:59:19.815Z,51.215858
2022-11-27T10:00:19.806Z,51.215954
2022-11-27T10:01:19.875Z,51.216057
2022-11-27T10:02:20.003Z,51.216080
2022-11-27T10:03:19.855Z,51.216125
2022-11-27T10:04:19.831Z,51.216072
2022-11-27T10:05:19.997Z,51.216141
2022-11-27T10:06:19.784Z,51.216137
2022-11-27T10:07:19.818Z,51.216183
2022-11-27T10:08:19.790Z,51.216080
2022-11-27T10:09:19.742Z,51.216015
2022-11-27T10:10:19.739Z,51.215965
2022-11-27T10:11:19.735Z,51.215908
2022-11-27T10:12:19.822Z,51.215843
2022-11-27T10:13:19.729Z,51.215996
2022-11-27T10:14:19.727Z,51.216053
2022-11-27T10:15:19.715Z,51.216137
2022-11-27T10:16:19.752Z,51.215977
2022-11-27T10:17:19.682Z,51.215988
2022-11-27T10:18:19.694Z,51.215969
2022-11-27T10:19:19.681Z,51.216000
2022-11-27T10:20:19.740Z,51.215981
2022-11-27T10:21:19.692Z,51.216091
2022-11-27T10:22:21.394Z,51.216057
2022-11-27T10:23:20.666Z,51.216080
2022-11-27T10:24:19.650Z,51.216084
2022-11-27T10:25:19.650Z,51.215942
2022-11-27T10:26:19.653Z,51.215847
2022-11-27T10:27:19.637Z,51.215927
2022-11-27T10:28:19.719Z,51.216091
2022-11-27T10:29:19.622Z,51.216087
2022-11-27T10:30:19.664Z,51.216137
2022-11-27T10:31:19.716Z,51.216061
2022-11-27T10:32:52.794Z,51.216068
2022-11-27T10:33:21.602Z,51.216084
2022-11-27T10:34:19.588Z,51.216026
2022-11-27T10:35:19.591Z,51.215973
2022-11-27T10:36:19.573Z,51.215988
2022-11-27T10:37:19.563Z,51.216011
2022-11-27T10:38:19.558Z,51.216106
2022-11-27T10:39:19.559Z,51.216087
2022-11-27T10:40:19.581Z,51.216167
2022-11-27T10:41:48.855Z,51.216175
2022-11-27T10:42:21.547Z,51.215824
2022-11-27T10:43:19.521Z,51.216038
2022-11-27T10:44:19.612Z,51.216122
2022-11-27T10:45:19.539Z,51.215996
2022-11-27T10:46:19.575Z,51.216049
2022-11-27T10:47:19.538Z,51.216171
2022-11-27T10:48:19.500Z,51.216305
2022-11-27T10:49:19.497Z,51.216255
2022-11-27T10:50:19.598Z,51.216232
2022-11-27T10:51:19.482Z,51.216209
2022-11-27T10:52:19.465Z,51.216145
2022-11-27T10:53:19.489Z,51.216206
2022-11-27T10:54:19.458Z,51.216228
2022-11-27T10:55:19.462Z,51.216106
2022-11-27T10:56:19.462Z,51.216026
2022-11-27T10:57:19.427Z,51.216133
2022-11-27T10:58:19.438Z,51.216042
2022-11-27T10:59:19.435Z,51.216053
2022-11-27T11:00:19.541Z,51.215946
2022-11-27T11:01:19.483Z,51.215794
2022-11-27T11:02:19.479Z,51.215996
2022-11-27T11:03:19.394Z,51.216095
2022-11-27T11:04:36.904Z,51.216038
2022-11-27T11:06:22.937Z,51.216148
2022-11-27T11:07:20.395Z,51.216190
2022-11-27T11:08:19.365Z,51.216045
2022-11-27T11:09:19.359Z,51.216122
2022-11-27T11:10:19.354Z,51.216145
2022-11-27T11:11:19.348Z,51.216164
2022-11-27T11:12:19.325Z,51.216202
2022-11-27T11:13:19.325Z,51.216145
2022-11-27T11:14:19.350Z,51.216141
2022-11-27T11:15:19.325Z,51.216076
2022-11-27T11:16:23.944Z,51.216255
2022-11-27T11:17:20.368Z,51.216106
2022-11-27T11:18:19.286Z,51.216240
2022-11-27T11:19:19.327Z,51.216129
2022-11-27T11:20:19.301Z,51.216129
2022-11-27T11:21:19.281Z,51.216179
2022-11-27T11:22:19.289Z,51.216110
2022-11-27T11:23:19.885Z,51.216152
2022-11-27T11:24:19.269Z,51.216064
2022-11-27T11:25:19.843Z,51.216209